Time;durP1;ratioP1;P1;durP2;ratioP2;P2;SDS_P1;SDS_P2;PMS_P1;PMS_P2;Temp;Humidity;BMP_temperature;BMP_pressure;BME280_temperature;BME280_humidity;BME280_pressure;Samples;Min_cycle;Max_cycle;Signal;HPM_P1;HPM_P2
2021/12/22 00:00:10;;;;;;;33.60;14.43;;;0.40;99.90;;;;;;4162608;28;20503;-78
2021/12/22 00:02:12;;;;;;;36.63;13.77;;;0.40;99.90;;;;;;4165660;28;20546;-78
2021/12/22 00:04:15;;;;;;;34.13;14.07;;;0.40;99.90;;;;;;4165993;28;20473;-76
2021/12/22 00:06:21;;;;;;;29.07;12.40;;;0.40;99.90;;;;;;4162147;28;20481;-79
2021/12/22 00:08:24;;;;;;;31.43;13.10;;;0.40;99.90;;;;;;4161398;28;20479;-78
2021/12/22 00:10:26;;;;;;;32.23;12.73;;;0.40;99.90;;;;;;4165577;28;20493;-76
2021/12/22 00:12:28;;;;;;;35.43;13.37;;;0.40;99.90;;;;;;4160404;28;20488;-77
2021/12/22 00:14:30;;;;;;;33.73;13.47;;;0.40;99.90;;;;;;4164351;28;20475;-78
2021/12/22 00:16:31;;;;;;;33.53;12.97;;;0.40;99.90;;;;;;4166530;28;20460;-78
2021/12/22 00:18:33;;;;;;;34.93;13.50;;;0.40;99.90;;;;;;4166063;28;20458;-78
2021/12/22 00:20:37;;;;;;;30.57;13.37;;;0.40;99.90;;;;;;4165791;28;20451;-78
2021/12/22 00:22:39;;;;;;;39.80;14.93;;;0.40;99.90;;;;;;4158807;28;20546;-77
2021/12/22 00:24:41;;;;;;;40.13;15.53;;;0.40;99.90;;;;;;4156772;28;20544;-78
2021/12/22 00:26:42;;;;;;;32.27;13.73;;;0.40;99.90;;;;;;4154396;28;20500;-77
2021/12/22 00:28:46;;;;;;;39.83;13.80;;;0.30;99.90;;;;;;4151054;28;20674;-77
2021/12/22 00:30:50;;;;;;;34.33;14.40;;;0.40;99.90;;;;;;4157467;28;20472;-78
2021/12/22 00:32:54;;;;;;;33.57;13.67;;;0.30;99.90;;;;;;4161962;28;20521;-77
2021/12/22 00:34:56;;;;;;;36.50;14.30;;;0.30;99.90;;;;;;4161192;28;20499;-76
2021/12/22 00:36:59;;;;;;;41.40;14.50;;;0.30;99.90;;;;;;4164994;28;20470;-78
2021/12/22 00:39:00;;;;;;;35.63;14.37;;;0.30;99.90;;;;;;4167291;28;20545;-78
2021/12/22 00:41:02;;;;;;;34.93;14.07;;;0.30;99.90;;;;;;4162810;28;20466;-77
2021/12/22 00:43:05;;;;;;;34.80;13.67;;;0.30;99.90;;;;;;4164763;28;20566;-78
2021/12/22 00:45:07;;;;;;;37.97;14.43;;;0.30;99.90;;;;;;4165594;28;20513;-77
2021/12/22 00:47:10;;;;;;;34.47;13.30;;;0.30;99.90;;;;;;4165190;28;20461;-77
2021/12/22 00:49:11;;;;;;;36.93;13.60;;;0.30;99.90;;;;;;4153877;28;20479;-78
2021/12/22 00:51:13;;;;;;;37.90;14.33;;;0.30;99.90;;;;;;4164398;28;20527;-76
2021/12/22 00:53:16;;;;;;;37.70;14.50;;;0.30;99.90;;;;;;4156423;28;20494;-78
2021/12/22 00:55:20;;;;;;;37.63;14.67;;;0.20;99.90;;;;;;4165077;28;20453;-78
2021/12/22 00:57:22;;;;;;;32.77;13.50;;;0.30;99.90;;;;;;4160186;28;20510;-76
2021/12/22 00:59:24;;;;;;;38.10;13.90;;;0.20;99.90;;;;;;4162498;28;20516;-76
2021/12/22 01:01:25;;;;;;;38.10;14.70;;;0.20;99.90;;;;;;4165049;28;20793;-76
2021/12/22 01:03:28;;;;;;;33.03;13.33;;;0.20;99.90;;;;;;4165822;28;20867;-77
2021/12/22 01:05:31;;;;;;;34.93;13.63;;;0.20;99.90;;;;;;4165239;28;20575;-77
2021/12/22 01:07:32;;;;;;;36.80;14.30;;;0.20;99.90;;;;;;4152776;28;20479;-77
2021/12/22 01:09:36;;;;;;;35.17;13.67;;;0.20;99.90;;;;;;4162858;28;20503;-78
2021/12/22 01:11:37;;;;;;;38.33;15.00;;;0.20;99.90;;;;;;4173605;28;20533;-77
2021/12/22 01:13:39;;;;;;;34.33;13.00;;;0.20;99.90;;;;;;4172317;28;20470;-77
2021/12/22 01:15:42;;;;;;;33.80;14.27;;;0.20;99.90;;;;;;4171210;28;20472;-78
2021/12/22 01:17:47;;;;;;;33.73;12.60;;;0.20;99.90;;;;;;4169796;28;20526;-78
2021/12/22 01:19:58;;;;;;;34.90;13.90;;;0.10;99.90;;;;;;4164532;28;20947;-77
2021/12/22 01:22:06;;;;;;;34.67;13.73;;;0.20;99.90;;;;;;4163554;28;20578;-77
2021/12/22 01:24:15;;;;;;;35.67;14.33;;;0.10;99.90;;;;;;4160757;28;20482;-78
2021/12/22 01:26:18;;;;;;;35.97;15.30;;;0.10;99.90;;;;;;4164873;28;20584;-78
2021/12/22 01:28:22;;;;;;;33.93;13.73;;;0.10;99.90;;;;;;4163585;28;20472;-78
2021/12/22 01:30:25;;;;;;;31.93;13.23;;;0.10;99.90;;;;;;4164855;28;20924;-78
2021/12/22 01:32:27;;;;;;;37.77;14.70;;;0.10;99.90;;;;;;4163813;28;21003;-77
2021/12/22 01:34:30;;;;;;;31.93;13.00;;;0.10;99.90;;;;;;4164725;28;20507;-78
2021/12/22 01:36:32;;;;;;;36.17;14.10;;;0.10;99.90;;;;;;4161546;28;20524;-78
2021/12/22 01:38:34;;;;;;;36.33;13.63;;;0.10;99.90;;;;;;4160231;28;20473;-77
2021/12/22 01:40:39;;;;;;;33.03;14.77;;;0.10;99.90;;;;;;4164836;28;20522;-78
2021/12/22 01:42:43;;;;;;;37.60;14.60;;;0.10;99.90;;;;;;4159738;28;21021;-76
2021/12/22 01:45:01;;;;;;;36.00;14.10;;;0.10;99.90;;;;;;4156357;28;20470;-75
2021/12/22 01:49:41;;;;;;;36.00;13.93;;;0.20;99.90;;;;;;4164765;28;20534;-77
2021/12/22 01:51:50;;;;;;;36.80;13.40;;;0.20;99.90;;;;;;4153609;28;20482;-76
2021/12/22 01:53:52;;;;;;;35.37;13.93;;;0.20;99.90;;;;;;4165065;28;20503;-77
2021/12/22 01:56:04;;;;;;;37.57;14.33;;;0.20;99.90;;;;;;4164499;28;20457;-77
2021/12/22 01:58:12;;;;;;;37.43;14.40;;;0.20;99.90;;;;;;4164769;28;20503;-76
2021/12/22 02:00:16;;;;;;;37.17;14.17;;;0.20;99.90;;;;;;4163831;28;20473;-76
2021/12/22 02:02:18;;;;;;;38.50;14.93;;;0.20;99.90;;;;;;4154048;28;20479;-77
2021/12/22 02:04:20;;;;;;;30.93;13.17;;;0.20;99.90;;;;;;4164623;28;20464;-78
2021/12/22 02:06:22;;;;;;;37.50;15.23;;;0.20;99.90;;;;;;4161578;28;20547;-74
2021/12/22 02:08:24;;;;;;;38.97;15.17;;;0.20;99.90;;;;;;4164142;28;20470;-74
2021/12/22 02:10:36;;;;;;;42.47;15.10;;;0.20;99.90;;;;;;4165297;28;20528;-77
2021/12/22 02:12:44;;;;;;;38.10;14.83;;;0.20;99.90;;;;;;4146981;28;20478;-74
2021/12/22 02:14:47;;;;;;;38.10;15.13;;;0.20;99.90;;;;;;4153563;28;20560;-77
2021/12/22 02:16:49;;;;;;;39.17;14.77;;;0.20;99.90;;;;;;4161898;28;20517;-74
2021/12/22 02:18:53;;;;;;;38.27;14.40;;;0.20;99.90;;;;;;4155395;28;20519;-75
2021/12/22 02:20:56;;;;;;;39.33;14.93;;;0.20;99.90;;;;;;4154911;28;20516;-73
2021/12/22 02:22:58;;;;;;;39.17;15.13;;;0.20;99.90;;;;;;4159789;28;20478;-74
2021/12/22 02:25:05;;;;;;;36.97;13.87;;;0.20;99.90;;;;;;4162153;28;20844;-74
2021/12/22 02:27:13;;;;;;;38.03;16.43;;;0.20;99.90;;;;;;4163372;28;21019;-74
2021/12/22 02:29:20;;;;;;;35.53;14.67;;;0.20;99.90;;;;;;4163636;28;20457;-74
2021/12/22 02:31:22;;;;;;;37.63;14.30;;;0.20;99.90;;;;;;4147636;28;20474;-76
2021/12/22 02:33:32;;;;;;;35.67;14.90;;;0.20;99.90;;;;;;4147720;28;21066;-73
2021/12/22 02:35:41;;;;;;;37.53;14.03;;;0.20;99.90;;;;;;4156188;28;21112;-73
2021/12/22 02:37:46;;;;;;;39.33;14.63;;;0.20;99.90;;;;;;4164556;28;20959;-73
2021/12/22 02:39:51;;;;;;;37.87;14.50;;;0.20;99.90;;;;;;4161196;28;20948;-74
2021/12/22 02:41:52;;;;;;;33.73;13.80;;;0.20;99.90;;;;;;4162770;28;20490;-77
2021/12/22 02:43:56;;;;;;;41.00;14.80;;;0.20;99.90;;;;;;4159229;28;20529;-75
2021/12/22 02:45:58;;;;;;;35.87;14.83;;;0.20;99.90;;;;;;4162789;28;20603;-74
2021/12/22 02:48:00;;;;;;;31.87;14.87;;;0.20;99.90;;;;;;4164116;28;20461;-74
2021/12/22 02:50:03;;;;;;;34.77;14.07;;;0.20;99.90;;;;;;4163023;28;20454;-75
2021/12/22 02:52:06;;;;;;;33.93;14.23;;;0.20;99.90;;;;;;4162304;28;20902;-75
2021/12/22 02:54:14;;;;;;;37.13;15.63;;;0.20;99.90;;;;;;4166595;28;20540;-74
2021/12/22 02:56:31;;;;;;;33.70;14.33;;;0.20;99.90;;;;;;4153765;28;20497;-74
2021/12/22 02:58:39;;;;;;;38.73;15.40;;;0.20;99.90;;;;;;4163893;28;20474;-73
2021/12/22 03:01:00;;;;;;;34.03;14.30;;;0.20;99.90;;;;;;4154232;28;20490;-79
2021/12/22 03:03:09;;;;;;;36.63;14.77;;;0.20;99.90;;;;;;4152145;28;20857;-74
2021/12/22 03:05:11;;;;;;;36.03;15.23;;;0.20;99.90;;;;;;4156416;28;20457;-75
2021/12/22 03:07:16;;;;;;;33.80;13.53;;;0.20;99.90;;;;;;4162488;28;20521;-74
2021/12/22 03:09:21;;;;;;;39.10;15.37;;;0.20;99.90;;;;;;4163999;28;20460;-75
2021/12/22 03:11:23;;;;;;;43.57;17.53;;;0.20;99.90;;;;;;4161561;28;20857;-74
2021/12/22 03:13:25;;;;;;;41.07;16.83;;;0.20;99.90;;;;;;4163608;28;20877;-73
2021/12/22 03:15:27;;;;;;;45.57;16.33;;;0.20;99.90;;;;;;4162131;28;20466;-74
2021/12/22 03:17:29;;;;;;;42.17;16.23;;;0.20;99.90;;;;;;4160921;28;20514;-74
2021/12/22 03:19:34;;;;;;;41.67;16.30;;;0.20;99.90;;;;;;4160667;28;20470;-74
2021/12/22 03:21:35;;;;;;;39.03;15.50;;;0.20;99.90;;;;;;4162130;28;20533;-75
2021/12/22 03:23:37;;;;;;;39.33;15.53;;;0.20;99.90;;;;;;4162868;28;20470;-75
2021/12/22 03:25:40;;;;;;;36.17;14.43;;;0.20;99.90;;;;;;4161685;28;20518;-74
2021/12/22 03:27:42;;;;;;;36.27;15.30;;;0.20;99.90;;;;;;4163849;28;20895;-74
2021/12/22 03:29:44;;;;;;;35.67;13.67;;;0.20;99.90;;;;;;4155524;28;20915;-76
2021/12/22 03:31:48;;;;;;;27.87;12.33;;;0.20;99.90;;;;;;4158726;28;20483;-73
2021/12/22 03:33:49;;;;;;;27.57;12.13;;;0.10;99.90;;;;;;4160553;28;20493;-74
2021/12/22 03:35:51;;;;;;;27.43;11.60;;;0.10;99.90;;;;;;4165543;28;21017;-74
2021/12/22 03:37:56;;;;;;;25.23;11.50;;;0.10;99.90;;;;;;4150709;28;20476;-79
2021/12/22 03:39:58;;;;;;;24.20;10.30;;;0.10;99.90;;;;;;4164588;28;20477;-74
2021/12/22 03:42:02;;;;;;;24.73;10.60;;;0.10;99.90;;;;;;4166465;28;20848;-74
2021/12/22 03:44:04;;;;;;;20.87;10.27;;;0.10;99.90;;;;;;4166553;28;20458;-74
2021/12/22 03:46:06;;;;;;;23.03;9.83;;;0.10;99.90;;;;;;4155532;28;20568;-74
2021/12/22 03:48:08;;;;;;;18.77;10.03;;;0.10;99.90;;;;;;4157883;28;20505;-72
2021/12/22 03:50:11;;;;;;;21.10;9.30;;;0.10;99.90;;;;;;4166138;28;20457;-74
2021/12/22 03:52:12;;;;;;;19.97;9.37;;;0.10;99.90;;;;;;4165591;28;20470;-74
2021/12/22 03:54:15;;;;;;;20.83;9.23;;;0.00;99.90;;;;;;4154784;28;20474;-74
2021/12/22 03:56:16;;;;;;;21.70;9.07;;;0.00;99.90;;;;;;4150673;28;20480;-74
2021/12/22 03:58:19;;;;;;;16.67;8.57;;;0.00;99.90;;;;;;4153845;28;20960;-74
2021/12/22 04:00:21;;;;;;;16.67;8.40;;;0.00;99.90;;;;;;4166309;28;20834;-75
2021/12/22 04:02:24;;;;;;;21.73;9.40;;;0.00;99.90;;;;;;4159727;28;21005;-77
2021/12/22 04:04:25;;;;;;;21.20;9.07;;;0.00;99.90;;;;;;4165735;28;20874;-74
2021/12/22 04:06:27;;;;;;;19.30;8.37;;;0.00;99.90;;;;;;4165468;28;20871;-77
2021/12/22 04:08:29;;;;;;;20.67;9.43;;;-0.10;99.90;;;;;;4166605;28;20458;-78
2021/12/22 04:10:31;;;;;;;20.33;8.93;;;-0.10;99.90;;;;;;4160436;28;20493;-74
2021/12/22 04:12:33;;;;;;;17.83;8.83;;;-0.10;99.90;;;;;;4163639;28;20838;-74
2021/12/22 04:14:36;;;;;;;17.63;7.90;;;-0.10;99.90;;;;;;4162003;28;20465;-74
2021/12/22 04:16:38;;;;;;;19.33;8.30;;;-0.20;99.90;;;;;;4165213;28;20457;-77
2021/12/22 04:18:39;;;;;;;18.23;8.73;;;-0.20;99.90;;;;;;4160964;28;20763;-74
2021/12/22 04:20:41;;;;;;;18.10;9.00;;;-0.20;99.90;;;;;;4165861;28;20507;-74
2021/12/22 04:22:43;;;;;;;17.03;8.13;;;-0.20;99.90;;;;;;4158288;28;20847;-74
2021/12/22 04:24:45;;;;;;;21.90;9.23;;;-0.30;99.90;;;;;;4165413;28;20519;-74
2021/12/22 04:26:47;;;;;;;19.70;8.77;;;-0.30;99.90;;;;;;4163821;28;20509;-74
2021/12/22 04:28:49;;;;;;;20.57;8.70;;;-0.30;99.90;;;;;;4165509;28;20469;-76
2021/12/22 04:30:52;;;;;;;17.03;8.40;;;-0.40;99.90;;;;;;4156408;28;20525;-75
2021/12/22 04:32:54;;;;;;;19.97;8.70;;;-0.40;99.90;;;;;;4165633;28;20535;-74
2021/12/22 04:34:55;;;;;;;20.90;9.27;;;-0.40;99.90;;;;;;4165819;28;20487;-74
2021/12/22 04:36:57;;;;;;;18.17;9.00;;;-0.40;99.90;;;;;;4165379;28;20496;-75
2021/12/22 04:38:59;;;;;;;19.50;8.57;;;-0.40;99.90;;;;;;4156363;28;20462;-74
2021/12/22 04:41:01;;;;;;;17.30;8.70;;;-0.50;99.90;;;;;;4152724;28;20568;-74
2021/12/22 04:43:03;;;;;;;17.03;8.53;;;-0.50;99.90;;;;;;4165577;28;20995;-76
2021/12/22 04:45:07;;;;;;;20.60;9.83;;;-0.50;99.90;;;;;;4164248;28;20457;-77
2021/12/22 04:47:10;;;;;;;19.43;8.77;;;-0.50;99.90;;;;;;4163731;28;21045;-75
2021/12/22 04:49:12;;;;;;;18.93;8.97;;;-0.50;99.90;;;;;;4154452;28;20470;-74
2021/12/22 04:51:24;;;;;;;19.87;8.23;;;-0.50;99.90;;;;;;4153714;28;20552;-74
2021/12/22 04:53:28;;;;;;;17.17;8.13;;;-0.60;99.90;;;;;;4164736;28;20474;-76
2021/12/22 04:55:30;;;;;;;20.63;9.33;;;-0.60;99.90;;;;;;4165341;28;20501;-74
2021/12/22 04:57:33;;;;;;;16.93;8.13;;;-0.60;99.90;;;;;;4165428;28;20507;-74
2021/12/22 04:59:35;;;;;;;17.50;8.60;;;-0.60;99.90;;;;;;4152877;28;20506;-75
2021/12/22 05:01:37;;;;;;;17.80;8.27;;;-0.70;99.90;;;;;;4153782;28;20952;-78
2021/12/22 05:03:42;;;;;;;19.80;8.77;;;-0.70;99.90;;;;;;4154413;28;20478;-74
2021/12/22 05:05:44;;;;;;;18.63;8.40;;;-0.70;99.90;;;;;;4153466;28;20495;-74
2021/12/22 05:07:47;;;;;;;18.30;8.10;;;-0.70;99.90;;;;;;4163409;28;20544;-75
2021/12/22 05:09:49;;;;;;;18.20;8.97;;;-0.80;99.90;;;;;;4168490;28;20493;-74
2021/12/22 05:11:52;;;;;;;15.53;8.30;;;-0.80;99.90;;;;;;4164508;28;20504;-74
2021/12/22 05:13:53;;;;;;;18.90;9.00;;;-0.80;99.90;;;;;;4164481;28;20997;-75
2021/12/22 05:15:55;;;;;;;15.53;8.03;;;-0.80;99.90;;;;;;4164249;28;20474;-74
2021/12/22 05:20:27;;;;;;;17.70;9.10;;;-0.90;99.90;;;;;;4127970;28;20497;-74
2021/12/22 05:22:28;;;;;;;21.00;8.23;;;-0.90;99.90;;;;;;4164160;28;20489;-74
2021/12/22 05:24:30;;;;;;;18.97;8.20;;;-0.90;99.90;;;;;;4159945;28;20569;-74
2021/12/22 05:26:32;;;;;;;17.67;7.90;;;-0.90;99.90;;;;;;4165317;28;20861;-75
2021/12/22 05:28:34;;;;;;;16.23;7.37;;;-0.90;99.90;;;;;;4165082;28;20785;-74
2021/12/22 05:30:35;;;;;;;16.20;7.28;;;-1.00;99.90;;;;;;4165016;28;20531;-74
2021/12/22 05:32:37;;;;;;;17.38;7.68;;;-1.00;99.90;;;;;;4164043;28;20234;-74
2021/12/22 05:34:39;;;;;;;13.87;6.90;;;-1.00;99.90;;;;;;4159558;28;20211;-74
2021/12/22 05:36:42;;;;;;;14.63;7.57;;;-1.00;99.90;;;;;;4161390;28;20465;-75
2021/12/22 05:38:45;;;;;;;13.52;6.60;;;-1.00;99.90;;;;;;4161059;28;20474;-78
2021/12/22 05:40:46;;;;;;;17.80;7.17;;;-1.00;99.90;;;;;;4164565;28;20661;-77
2021/12/22 05:42:48;;;;;;;13.20;7.10;;;-1.00;99.90;;;;;;4155564;28;20486;-74
2021/12/22 05:44:50;;;;;;;13.00;6.60;;;-1.00;99.90;;;;;;4157373;28;20453;-74
2021/12/22 05:46:51;;;;;;;15.43;6.53;;;-1.10;99.90;;;;;;4156547;28;20496;-75
2021/12/22 05:48:53;;;;;;;14.30;6.90;;;-1.10;99.90;;;;;;4161469;28;20632;-74
2021/12/22 05:50:57;;;;;;;13.30;6.53;;;-1.10;99.90;;;;;;4165016;28;20464;-75
2021/12/22 05:53:00;;;;;;;14.67;7.07;;;-1.10;99.90;;;;;;4164343;28;20314;-75
2021/12/22 05:55:02;;;;;;;11.53;7.10;;;-1.10;99.90;;;;;;4166498;28;20831;-74
2021/12/22 05:57:05;;;;;;;15.98;6.70;;;-1.10;99.90;;;;;;4161519;28;20883;-74
2021/12/22 05:59:07;;;;;;;15.17;7.10;;;-1.10;99.90;;;;;;4160320;28;20265;-78
2021/12/22 06:01:09;;;;;;;15.40;7.10;;;-1.20;99.90;;;;;;4162284;28;20489;-77
2021/12/22 06:03:11;;;;;;;17.02;7.20;;;-1.10;99.90;;;;;;4163320;28;20223;-76
2021/12/22 06:05:12;;;;;;;12.90;6.88;;;-1.20;99.90;;;;;;4156023;28;20307;-75
2021/12/22 06:07:14;;;;;;;14.60;7.45;;;-1.20;99.90;;;;;;4163873;28;20700;-76
2021/12/22 06:09:17;;;;;;;14.23;6.82;;;-1.20;99.90;;;;;;4159696;28;20238;-76
2021/12/22 06:11:19;;;;;;;12.73;6.97;;;-1.20;99.90;;;;;;4157801;28;20574;-74
2021/12/22 06:13:20;;;;;;;13.20;6.63;;;-1.20;99.90;;;;;;4158576;28;20235;-74
2021/12/22 06:15:22;;;;;;;14.15;7.13;;;-1.20;99.90;;;;;;4163398;28;20565;-74
2021/12/22 06:17:24;;;;;;;12.45;6.65;;;-1.20;99.90;;;;;;4159613;28;20207;-74
2021/12/22 06:19:26;;;;;;;14.67;7.57;;;-1.20;99.90;;;;;;4160628;28;20219;-75
2021/12/22 06:21:29;;;;;;;18.15;8.32;;;-1.20;99.90;;;;;;4151353;28;20462;-75
2021/12/22 06:23:31;;;;;;;20.30;8.07;;;-1.30;99.90;;;;;;4160380;28;20302;-74
2021/12/22 06:25:34;;;;;;;17.85;8.82;;;-1.30;99.90;;;;;;4155245;28;20208;-74
2021/12/22 06:27:36;;;;;;;16.90;8.27;;;-1.20;99.90;;;;;;4161139;28;20611;-75
2021/12/22 06:29:38;;;;;;;19.27;9.25;;;-1.20;99.90;;;;;;4157253;28;20691;-78
2021/12/22 06:31:39;;;;;;;21.13;9.70;;;-1.20;99.90;;;;;;4157303;28;20215;-74
2021/12/22 06:33:41;;;;;;;18.67;9.17;;;-1.20;99.90;;;;;;4155074;28;20459;-75
2021/12/22 06:35:43;;;;;;;17.83;8.87;;;-1.10;99.90;;;;;;4157584;28;20458;-76
2021/12/22 06:37:45;;;;;;;21.83;10.37;;;-1.10;99.90;;;;;;4157286;28;20466;-78
2021/12/22 06:39:47;;;;;;;18.93;8.97;;;-1.10;99.90;;;;;;4159589;28;20523;-79
2021/12/22 06:41:50;;;;;;;17.90;8.87;;;-1.20;99.90;;;;;;4162078;28;20536;-76
2021/12/22 06:43:52;;;;;;;18.73;9.48;;;-1.10;99.90;;;;;;4152403;28;20519;-75
2021/12/22 06:45:53;;;;;;;17.70;9.27;;;-1.10;99.90;;;;;;4152630;28;20214;-75
2021/12/22 06:47:55;;;;;;;15.33;8.33;;;-1.10;99.90;;;;;;4155041;28;20490;-78
2021/12/22 06:49:57;;;;;;;16.43;9.03;;;-1.10;99.90;;;;;;4157103;28;20462;-79
2021/12/22 06:51:58;;;;;;;17.30;8.57;;;-1.10;99.90;;;;;;4162021;28;21048;-78
2021/12/22 06:54:00;;;;;;;18.40;9.43;;;-1.10;99.90;;;;;;4154490;28;20454;-76
2021/12/22 06:56:03;;;;;;;16.15;8.55;;;-1.10;99.90;;;;;;4153920;28;20475;-76
2021/12/22 06:58:06;;;;;;;19.80;9.33;;;-1.10;99.90;;;;;;4159704;28;20204;-75
2021/12/22 07:00:11;;;;;;;22.23;9.20;;;-1.10;99.90;;;;;;4162669;28;20550;-76
2021/12/22 07:02:13;;;;;;;20.73;9.50;;;-1.10;99.90;;;;;;4158835;28;20486;-76
2021/12/22 07:04:14;;;;;;;20.83;9.23;;;-1.10;99.90;;;;;;4155210;28;20514;-74
2021/12/22 07:06:16;;;;;;;19.60;9.37;;;-1.10;99.90;;;;;;4151605;28;21675;-77
2021/12/22 07:08:18;;;;;;;19.43;8.97;;;-1.20;99.90;;;;;;4155011;28;21023;-78
2021/12/22 07:10:20;;;;;;;18.00;9.02;;;-1.20;99.90;;;;;;4155766;28;20482;-75
2021/12/22 07:12:22;;;;;;;19.73;8.63;;;-1.20;99.90;;;;;;4153557;28;20243;-75
2021/12/22 07:14:26;;;;;;;18.87;9.47;;;-1.20;99.90;;;;;;4155971;28;20500;-75
2021/12/22 07:16:27;;;;;;;21.52;9.48;;;-1.20;99.90;;;;;;4154670;28;20473;-77
2021/12/22 07:18:31;;;;;;;18.80;9.67;;;-1.30;99.90;;;;;;4157112;28;20214;-76
2021/12/22 07:20:34;;;;;;;16.23;8.60;;;-1.30;99.90;;;;;;4153626;28;20473;-80
2021/12/22 07:22:37;;;;;;;19.37;8.73;;;-1.30;99.90;;;;;;4156097;28;20685;-76
2021/12/22 07:24:38;;;;;;;18.50;9.93;;;-1.30;99.90;;;;;;4157149;28;20516;-78
2021/12/22 07:26:40;;;;;;;18.55;9.07;;;-1.30;99.90;;;;;;4158665;28;20214;-79
2021/12/22 07:28:43;;;;;;;18.95;8.85;;;-1.30;99.90;;;;;;4151923;28;20704;-81
2021/12/22 07:30:46;;;;;;;17.30;8.67;;;-1.40;99.90;;;;;;4156782;28;20208;-76
2021/12/22 07:32:48;;;;;;;18.85;9.00;;;-1.30;99.90;;;;;;4157338;28;20906;-79
2021/12/22 07:34:57;;;;;;;20.03;9.50;;;-1.30;99.90;;;;;;4157388;28;20215;-78
2021/12/22 07:37:04;;;;;;;16.47;8.17;;;-1.40;99.90;;;;;;4151685;28;20523;-79
2021/12/22 07:39:05;;;;;;;18.00;8.73;;;-1.40;99.90;;;;;;4147489;28;20480;-78
2021/12/22 07:41:09;;;;;;;18.93;8.70;;;-1.40;99.90;;;;;;4153444;28;20215;-79
2021/12/22 07:43:11;;;;;;;16.63;8.35;;;-1.40;99.90;;;;;;4155222;28;20469;-79
2021/12/22 07:45:13;;;;;;;20.92;8.82;;;-1.40;99.90;;;;;;4154482;28;20277;-79
2021/12/22 07:47:16;;;;;;;19.83;9.02;;;-1.40;99.90;;;;;;4155663;28;20668;-79
2021/12/22 07:49:18;;;;;;;20.35;9.20;;;-1.40;99.90;;;;;;4154874;28;20219;-79
2021/12/22 07:51:20;;;;;;;21.50;9.70;;;-1.40;99.90;;;;;;4155142;28;20585;-79
2021/12/22 07:53:22;;;;;;;20.83;10.13;;;-1.40;99.90;;;;;;4156323;28;20486;-79
2021/12/22 07:55:24;;;;;;;24.25;10.95;;;-1.40;99.90;;;;;;4155116;28;20580;-78
2021/12/22 07:57:26;;;;;;;22.17;9.63;;;-1.40;99.90;;;;;;4155771;28;20269;-79
2021/12/22 07:59:28;;;;;;;21.60;10.25;;;-1.50;99.90;;;;;;4155673;28;20276;-79
2021/12/22 08:01:32;;;;;;;22.63;10.33;;;-1.50;99.90;;;;;;4149852;28;20211;-79
2021/12/22 08:03:35;;;;;;;20.23;9.77;;;-1.50;99.90;;;;;;4151715;28;20473;-79
2021/12/22 08:05:37;;;;;;;20.52;9.95;;;-1.50;99.90;;;;;;4152610;28;20292;-79
2021/12/22 08:07:38;;;;;;;19.27;9.52;;;-1.50;99.90;;;;;;4153330;28;20281;-79
2021/12/22 08:09:40;;;;;;;24.95;10.43;;;-1.50;99.90;;;;;;4154887;28;20234;-79
2021/12/22 08:11:42;;;;;;;21.27;10.37;;;-1.50;99.90;;;;;;4156660;28;20214;-79
2021/12/22 08:13:43;;;;;;;21.92;10.73;;;-1.50;99.90;;;;;;4155905;28;20524;-79
2021/12/22 08:15:46;;;;;;;22.27;10.35;;;-1.50;99.90;;;;;;4156271;28;20615;-79
2021/12/22 08:17:47;;;;;;;24.70;10.73;;;-1.50;99.90;;;;;;4155819;28;20211;-78
2021/12/22 08:19:50;;;;;;;21.67;11.10;;;-1.40;99.90;;;;;;4153744;28;20208;-79
2021/12/22 08:21:52;;;;;;;27.77;12.45;;;-1.40;99.90;;;;;;4155788;28;20760;-79
2021/12/22 08:23:54;;;;;;;28.67;12.20;;;-1.40;99.90;;;;;;4157692;28;20211;-79
2021/12/22 08:25:56;;;;;;;26.77;12.00;;;-1.40;99.90;;;;;;4159671;28;20496;-79
2021/12/22 08:27:57;;;;;;;28.13;12.90;;;-1.40;99.90;;;;;;4156943;28;20970;-78
2021/12/22 08:29:59;;;;;;;27.37;12.37;;;-1.40;99.90;;;;;;4159714;28;20268;-78
2021/12/22 08:32:01;;;;;;;28.47;12.20;;;-1.40;99.90;;;;;;4158417;28;20501;-78
2021/12/22 08:34:04;;;;;;;30.00;12.80;;;-1.30;99.90;;;;;;4160062;28;20879;-79
2021/12/22 08:40:47;;;;;;;26.40;12.23;;;-1.20;99.90;;;;;;4166329;28;20535;-80
2021/12/22 08:42:50;;;;;;;30.13;12.87;;;-1.20;99.90;;;;;;4170384;28;20485;-79
2021/12/22 08:44:53;;;;;;;27.10;12.27;;;-1.20;99.90;;;;;;4167722;28;20486;-78
2021/12/22 08:46:56;;;;;;;29.23;12.75;;;-1.20;99.90;;;;;;4162549;28;20457;-80
2021/12/22 08:48:58;;;;;;;27.38;12.65;;;-1.20;99.90;;;;;;4167477;28;20231;-79
2021/12/22 08:51:00;;;;;;;26.30;12.30;;;-1.10;99.90;;;;;;4166511;28;20272;-78
2021/12/22 08:53:03;;;;;;;29.47;13.30;;;-1.10;99.90;;;;;;4162795;28;20261;-80
2021/12/22 08:55:06;;;;;;;31.10;13.27;;;-1.10;99.90;;;;;;4162622;28;20465;-80
2021/12/22 08:57:08;;;;;;;31.33;13.70;;;-1.00;99.90;;;;;;4162263;28;20968;-80
2021/12/22 08:59:11;;;;;;;29.60;12.37;;;-1.00;99.90;;;;;;4160861;28;20446;-79
2021/12/22 09:01:13;;;;;;;32.37;12.93;;;-1.00;99.90;;;;;;4158776;28;20473;-79
2021/12/22 09:03:15;;;;;;;26.00;11.77;;;-1.00;99.90;;;;;;4157498;28;20909;-77
2021/12/22 09:05:16;;;;;;;28.40;11.63;;;-1.00;99.90;;;;;;4158021;28;20962;-79
2021/12/22 09:07:18;;;;;;;28.02;12.13;;;-1.00;99.90;;;;;;4157507;28;20504;-79
2021/12/22 09:09:22;;;;;;;26.83;12.07;;;-1.00;99.90;;;;;;4160292;28;20708;-79
2021/12/22 09:11:23;;;;;;;30.83;12.53;;;-1.00;99.90;;;;;;4158612;28;20496;-78
2021/12/22 09:13:25;;;;;;;25.90;11.30;;;-1.00;99.90;;;;;;4160002;28;20470;-79
2021/12/22 09:15:27;;;;;;;23.95;11.93;;;-1.00;99.90;;;;;;4160327;28;20520;-79
2021/12/22 09:17:29;;;;;;;27.30;12.57;;;-1.00;99.90;;;;;;4160539;28;20314;-79
2021/12/22 09:19:31;;;;;;;26.53;12.07;;;-1.00;99.90;;;;;;4161759;28;20469;-79
2021/12/22 09:21:33;;;;;;;26.20;12.63;;;-1.00;99.90;;;;;;4161001;28;20470;-79
2021/12/22 09:23:35;;;;;;;26.73;12.73;;;-1.00;99.90;;;;;;4161185;28;20507;-80
2021/12/22 09:25:38;;;;;;;25.30;12.27;;;-0.90;99.90;;;;;;4161904;28;20465;-79
2021/12/22 09:27:40;;;;;;;26.43;12.23;;;-0.90;99.90;;;;;;4161240;28;20462;-78
2021/12/22 09:29:42;;;;;;;28.83;13.50;;;-0.90;99.90;;;;;;4162052;28;20465;-80
2021/12/22 09:31:44;;;;;;;29.13;12.82;;;-0.90;99.90;;;;;;4162104;28;21040;-79
2021/12/22 09:33:46;;;;;;;29.57;12.37;;;-0.90;99.90;;;;;;4166009;28;20265;-80
2021/12/22 09:35:50;;;;;;;28.77;13.33;;;-0.40;99.90;;;;;;4167269;28;20465;-79
2021/12/22 09:37:52;;;;;;;27.77;12.27;;;-1.00;99.90;;;;;;4164632;28;20508;-79
2021/12/22 09:39:54;;;;;;;34.93;13.70;;;-1.00;99.90;;;;;;4169021;28;20234;-78
2021/12/22 09:41:57;;;;;;;32.72;13.45;;;-0.90;99.90;;;;;;4168055;28;20496;-79
2021/12/22 09:43:59;;;;;;;28.33;12.00;;;-0.90;99.90;;;;;;4162275;28;20277;-80
2021/12/22 09:46:05;;;;;;;28.20;12.70;;;-0.90;99.90;;;;;;4159076;28;20494;-79
2021/12/22 09:48:29;;;;;;;28.80;12.93;;;-0.90;99.90;;;;;;4159079;28;20800;-80
2021/12/22 09:50:46;;;;;;;33.00;13.43;;;-0.90;99.90;;;;;;4159577;28;20466;-79
2021/12/22 09:52:47;;;;;;;29.83;12.20;;;-0.80;99.90;;;;;;4157336;28;20531;-80
2021/12/22 09:54:51;;;;;;;30.50;12.97;;;-0.80;99.90;;;;;;4158833;28;20556;-80
2021/12/22 09:56:53;;;;;;;31.07;13.53;;;-0.80;99.90;;;;;;4159378;28;21021;-79
2021/12/22 09:58:56;;;;;;;30.10;13.30;;;-0.80;99.90;;;;;;4157267;28;20872;-80
2021/12/22 10:00:59;;;;;;;36.43;13.90;;;-0.80;99.90;;;;;;4158041;28;20477;-79
2021/12/22 10:03:00;;;;;;;34.50;14.27;;;-0.80;99.90;;;;;;4159024;28;20466;-77
2021/12/22 10:05:03;;;;;;;33.87;13.53;;;-0.80;99.90;;;;;;4157537;28;20462;-79
2021/12/22 10:07:07;;;;;;;31.80;13.57;;;-0.70;99.90;;;;;;4159421;28;20846;-80
2021/12/22 10:09:08;;;;;;;28.50;12.60;;;-0.70;99.90;;;;;;4158775;28;20498;-80
2021/12/22 10:11:12;;;;;;;32.07;14.33;;;-0.70;99.90;;;;;;4158274;28;20840;-79
2021/12/22 10:13:16;;;;;;;31.17;13.53;;;-0.60;99.90;;;;;;4157338;28;20482;-80
2021/12/22 10:15:19;;;;;;;29.83;13.07;;;-0.60;99.90;;;;;;4158657;28;20505;-78
2021/12/22 10:17:33;;;;;;;31.07;13.17;;;-0.90;99.90;;;;;;4159715;28;20511;-79
2021/12/22 10:19:34;;;;;;;29.63;12.60;;;-0.60;99.90;;;;;;4158914;28;20461;-79
2021/12/22 10:21:54;;;;;;;32.73;13.80;;;-0.60;99.90;;;;;;4158697;28;20450;-79
2021/12/22 10:23:56;;;;;;;31.50;12.80;;;-0.60;99.90;;;;;;4158654;28;20473;-80
2021/12/22 10:26:00;;;;;;;28.93;12.77;;;-0.60;99.90;;;;;;4159877;28;20469;-77
2021/12/22 10:28:13;;;;;;;26.27;12.00;;;-0.50;99.90;;;;;;4157823;28;20466;-79
2021/12/22 10:30:26;;;;;;;27.67;12.50;;;-0.50;99.90;;;;;;4159116;28;20461;-79
2021/12/22 10:32:32;;;;;;;32.37;13.63;;;-0.40;99.90;;;;;;4158099;28;20491;-78
2021/12/22 10:34:34;;;;;;;27.93;12.70;;;-0.40;99.90;;;;;;4155801;28;20528;-77
2021/12/22 10:36:47;;;;;;;32.50;12.73;;;-0.40;99.90;;;;;;4153943;28;20626;-82
2021/12/22 10:38:52;;;;;;;29.53;12.63;;;-0.40;99.90;;;;;;4158264;28;20516;-79
2021/12/22 10:40:56;;;;;;;29.37;12.40;;;-0.30;99.90;;;;;;4158762;28;20458;-80